createdAt,value
2019-03-21T00:02:00.556Z,10.05
2019-03-21T00:04:28.773Z,7.87
2019-03-21T00:06:57.012Z,8.18
2019-03-21T00:09:25.254Z,11.25
2019-03-21T00:11:56.883Z,9.08
2019-03-21T00:14:31.193Z,11.15
2019-03-21T00:16:59.586Z,6.05
2019-03-21T00:19:27.833Z,11.57
2019-03-21T00:21:56.098Z,9.13
2019-03-21T00:24:24.318Z,8.30
2019-03-21T00:26:52.554Z,12.93
2019-03-21T00:29:20.789Z,11.10
2019-03-21T00:31:49.033Z,10.88
2019-03-21T00:34:17.306Z,10.55
2019-03-21T00:36:45.595Z,8.08
2019-03-21T00:39:13.810Z,13.78
2019-03-21T00:41:42.094Z,11.33
2019-03-21T00:44:18.091Z,6.58
2019-03-21T00:46:40.344Z,16.00
2019-03-21T00:49:08.559Z,8.10
2019-03-21T00:51:36.799Z,7.95
2019-03-21T00:54:05.173Z,12.47
2019-03-21T00:56:33.423Z,9.38
2019-03-21T00:59:01.658Z,11.40
2019-03-21T01:01:29.899Z,6.60
2019-03-21T01:03:58.198Z,7.22
2019-03-21T01:06:26.414Z,10.38
2019-03-21T01:08:54.670Z,7.90
2019-03-21T01:11:22.889Z,8.70
2019-03-21T01:13:51.122Z,8.55
2019-03-21T01:16:19.370Z,8.20
2019-03-21T01:18:47.950Z,9.90
2019-03-21T01:21:16.214Z,6.42
2019-03-21T01:23:44.439Z,14.90
2019-03-21T01:26:14.287Z,8.13
2019-03-21T01:28:42.609Z,12.25
2019-03-21T01:31:10.832Z,6.50
2019-03-21T01:33:39.066Z,9.45
2019-03-21T01:36:07.954Z,8.80
2019-03-21T01:38:36.184Z,10.58
2019-03-21T01:41:12.793Z,8.68
2019-03-21T01:43:41.002Z,8.68
2019-03-21T01:46:12.649Z,9.83
2019-03-21T01:48:40.891Z,7.67
2019-03-21T01:51:09.105Z,10.08
2019-03-21T01:53:37.344Z,7.92
2019-03-21T01:56:05.560Z,12.45
2019-03-21T01:58:33.822Z,11.25
2019-03-21T02:01:02.041Z,10.65
2019-03-21T02:03:30.295Z,11.25
2019-03-21T02:05:58.531Z,17.23
2019-03-21T02:08:26.768Z,10.08
2019-03-21T02:10:54.998Z,11.90
2019-03-21T02:13:23.260Z,13.13
2019-03-21T02:15:51.498Z,10.43
2019-03-21T02:18:19.724Z,10.63
2019-03-21T02:20:47.962Z,11.97
2019-03-21T02:23:16.233Z,7.80
2019-03-21T02:25:45.601Z,10.55
2019-03-21T02:28:13.820Z,12.20
2019-03-21T02:30:44.024Z,12.13
2019-03-21T02:33:32.716Z,8.38
2019-03-21T02:36:02.692Z,8.30
2019-03-21T02:38:30.945Z,13.05
2019-03-21T02:41:11.610Z,9.55
2019-03-21T02:43:40.197Z,8.58
2019-03-21T02:46:08.415Z,13.65
2019-03-21T02:48:36.666Z,9.45
2019-03-21T02:51:06.239Z,11.28
2019-03-21T02:53:34.472Z,8.13
2019-03-21T02:56:04.138Z,13.32
2019-03-21T02:58:32.391Z,11.90
2019-03-21T03:01:20.030Z,11.63
2019-03-21T03:03:48.292Z,10.28
2019-03-21T03:06:16.523Z,9.80
2019-03-21T03:08:44.759Z,8.50
2019-03-21T03:11:16.518Z,13.65
2019-03-21T03:13:47.697Z,8.58
2019-03-21T03:16:15.944Z,10.93
2019-03-21T03:18:44.175Z,12.35
2019-03-21T03:21:12.481Z,8.05
2019-03-21T03:23:40.691Z,9.60
2019-03-21T03:26:08.948Z,11.80
2019-03-21T03:28:42.878Z,7.42
2019-03-21T03:31:11.150Z,8.43
2019-03-21T03:33:39.389Z,8.45
2019-03-21T03:36:07.626Z,8.18
2019-03-21T03:38:35.868Z,13.43
2019-03-21T03:41:07.231Z,7.28
2019-03-21T03:43:35.479Z,9.80
2019-03-21T03:46:03.710Z,12.75
2019-03-21T03:48:31.967Z,8.18
2019-03-21T03:51:00.216Z,10.05
2019-03-21T03:53:28.458Z,12.90
2019-03-21T03:55:56.670Z,9.53
2019-03-21T03:58:29.230Z,11.40
2019-03-21T04:00:57.521Z,11.15
2019-03-21T04:03:27.610Z,14.90
2019-03-21T04:05:55.895Z,12.35
2019-03-21T04:08:24.170Z,13.10
2019-03-21T04:10:54.245Z,11.45
2019-03-21T04:13:22.476Z,9.35
2019-03-21T04:15:53.254Z,10.50
2019-03-21T04:18:23.014Z,10.20
2019-03-21T04:20:54.257Z,9.43
2019-03-21T04:23:41.917Z,13.50
2019-03-21T04:26:22.440Z,11.03
2019-03-21T04:28:51.046Z,12.63
2019-03-21T04:31:19.288Z,12.78
2019-03-21T04:33:49.256Z,12.98
2019-03-21T04:36:17.494Z,13.00
2019-03-21T04:38:45.734Z,8.40
2019-03-21T04:41:13.957Z,12.47
2019-03-21T04:43:42.195Z,11.48
2019-03-21T04:46:10.420Z,12.13
2019-03-21T04:48:38.666Z,10.43
2019-03-21T04:51:06.891Z,14.55
2019-03-21T04:53:35.109Z,8.90
2019-03-21T04:56:03.419Z,11.65
2019-03-21T04:58:31.659Z,9.48
2019-03-21T05:00:59.967Z,11.30
2019-03-21T05:03:30.487Z,11.12
2019-03-21T05:05:58.729Z,6.60
2019-03-21T05:08:26.946Z,9.13
2019-03-21T05:10:55.253Z,9.20
2019-03-21T05:13:23.488Z,7.78
2019-03-21T05:16:14.931Z,11.10
2019-03-21T05:18:48.689Z,8.03
2019-03-21T05:21:20.288Z,11.93
2019-03-21T05:23:48.552Z,9.23
2019-03-21T05:26:16.783Z,9.28
2019-03-21T05:28:45.008Z,17.80
2019-03-21T05:31:19.903Z,8.25
2019-03-21T05:33:48.158Z,15.43
2019-03-21T05:36:16.410Z,13.98
2019-03-21T05:38:44.631Z,13.83
2019-03-21T05:41:12.901Z,11.50
2019-03-21T05:43:47.388Z,12.65
2019-03-21T05:46:25.983Z,9.28
2019-03-21T05:48:46.527Z,10.72
2019-03-21T05:51:14.756Z,9.85
2019-03-21T05:53:42.996Z,9.40
2019-03-21T05:56:11.232Z,10.72
2019-03-21T05:58:39.497Z,10.35
2019-03-21T06:01:14.015Z,13.68
2019-03-21T06:03:50.417Z,12.18
2019-03-21T06:06:27.821Z,11.03
2019-03-21T06:08:56.066Z,14.75
2019-03-21T06:11:24.289Z,13.65
2019-03-21T06:13:52.540Z,9.93
2019-03-21T06:16:20.778Z,12.00
2019-03-21T06:19:19.001Z,11.63
2019-03-21T06:21:58.840Z,12.13
2019-03-21T06:24:48.325Z,11.97
2019-03-21T06:27:30.743Z,13.15
2019-03-21T06:29:59.031Z,11.70
2019-03-21T06:32:27.731Z,11.28
2019-03-21T06:34:56.581Z,18.12
2019-03-21T06:37:28.310Z,15.40
2019-03-21T06:39:55.430Z,16.15
2019-03-21T06:42:23.684Z,119.13
2019-03-21T06:44:51.921Z,144.77
2019-03-21T06:47:20.190Z,225.70
2019-03-21T06:49:48.431Z,303.83
2019-03-21T06:52:16.662Z,73.15
2019-03-21T06:54:44.911Z,26.48
2019-03-21T06:57:13.167Z,12.33
2019-03-21T06:59:41.380Z,12.28
2019-03-21T07:02:09.598Z,11.88
2019-03-21T07:04:37.860Z,12.43
2019-03-21T07:07:08.491Z,14.93
2019-03-21T07:09:36.048Z,42.78
2019-03-21T07:12:04.318Z,280.73
2019-03-21T07:14:32.554Z,89.83
2019-03-21T07:17:00.994Z,63.02
2019-03-21T07:19:29.341Z,100.22
2019-03-21T07:21:57.594Z,84.67
2019-03-21T07:24:25.841Z,106.80
2019-03-21T07:26:54.068Z,48.23
2019-03-21T07:29:22.308Z,77.55
2019-03-21T07:31:50.551Z,13.00
2019-03-21T07:34:18.808Z,33.50
2019-03-21T07:36:47.042Z,28.95
2019-03-21T07:39:15.284Z,21.85
2019-03-21T07:41:43.530Z,19.10
2019-03-21T07:44:11.756Z,48.13
2019-03-21T07:46:40.025Z,12.68
2019-03-21T07:49:08.252Z,14.53
2019-03-21T07:51:36.493Z,131.32
2019-03-21T07:54:04.730Z,37.85
2019-03-21T07:56:32.944Z,19.23
2019-03-21T07:59:01.206Z,28.55
2019-03-21T08:01:29.430Z,19.10
2019-03-21T08:03:57.672Z,34.20
2019-03-21T08:06:25.992Z,17.00
2019-03-21T08:08:54.211Z,11.40
2019-03-21T08:11:22.465Z,12.70
2019-03-21T08:13:50.725Z,19.95
2019-03-21T08:16:18.959Z,15.03
2019-03-21T08:18:47.209Z,17.73
2019-03-21T08:21:15.432Z,12.60
2019-03-21T08:23:56.357Z,13.25
2019-03-21T08:26:24.583Z,22.55
2019-03-21T08:28:52.836Z,26.00
2019-03-21T08:31:21.063Z,15.32
2019-03-21T08:33:49.681Z,17.98
2019-03-21T08:36:17.919Z,16.82
2019-03-21T08:38:46.171Z,17.85
2019-03-21T08:41:14.393Z,9.90
2019-03-21T08:43:42.643Z,15.10
2019-03-21T08:46:10.873Z,12.78
2019-03-21T08:48:39.126Z,9.70
2019-03-21T08:51:08.734Z,8.95
2019-03-21T08:53:37.242Z,11.45
2019-03-21T08:56:05.470Z,9.70
2019-03-21T08:58:33.706Z,8.85
2019-03-21T09:01:01.955Z,12.25
2019-03-21T09:03:30.195Z,13.55
2019-03-21T09:05:58.418Z,12.63
2019-03-21T09:08:26.665Z,11.88
2019-03-21T09:10:54.930Z,10.72
2019-03-21T09:13:23.169Z,12.47
2019-03-21T09:15:51.406Z,13.05
2019-03-21T09:18:19.658Z,9.88
2019-03-21T09:20:47.894Z,9.43
2019-03-21T09:23:16.144Z,14.47
2019-03-21T09:25:44.386Z,9.28
2019-03-21T09:28:14.235Z,6.80
2019-03-21T09:30:42.678Z,10.38
2019-03-21T09:33:10.918Z,12.82
2019-03-21T09:35:39.181Z,11.83
2019-03-21T09:38:07.434Z,9.13
2019-03-21T09:40:35.646Z,4.30
2019-03-21T09:43:03.892Z,11.68
2019-03-21T09:45:32.116Z,9.25
2019-03-21T09:48:00.354Z,11.93
2019-03-21T09:50:31.426Z,7.17
2019-03-21T09:52:59.668Z,8.00
2019-03-21T09:55:27.916Z,9.45
2019-03-21T09:57:56.423Z,7.58
2019-03-21T10:00:37.378Z,7.72
2019-03-21T10:03:05.788Z,5.90
2019-03-21T10:05:34.027Z,7.80
2019-03-21T10:08:02.630Z,13.22
2019-03-21T10:10:35.575Z,8.20
2019-03-21T10:13:04.512Z,6.97
2019-03-21T10:15:32.730Z,8.55
2019-03-21T10:18:00.996Z,10.10
2019-03-21T10:20:29.212Z,8.70
2019-03-21T10:22:57.463Z,11.97
2019-03-21T10:25:26.787Z,18.32
2019-03-21T10:27:55.264Z,12.05
2019-03-21T10:30:37.914Z,6.45
2019-03-21T10:33:08.269Z,7.45
2019-03-21T10:35:36.518Z,6.75
2019-03-21T10:38:05.179Z,7.28
2019-03-21T10:40:33.411Z,10.75
2019-03-21T10:43:01.648Z,5.62
2019-03-21T10:45:29.889Z,6.35
2019-03-21T10:47:58.138Z,12.85
2019-03-21T10:50:33.762Z,5.70
2019-03-21T10:53:01.982Z,6.42
2019-03-21T10:55:30.237Z,7.05
2019-03-21T10:57:58.530Z,8.28
2019-03-21T11:00:26.885Z,6.72
2019-03-21T11:02:55.150Z,5.08
2019-03-21T11:05:23.484Z,8.78
2019-03-21T11:07:51.830Z,8.58
2019-03-21T11:10:20.045Z,8.85
2019-03-21T11:12:48.304Z,9.75
2019-03-21T11:15:16.528Z,6.42
2019-03-21T11:17:44.785Z,5.78
2019-03-21T11:20:28.053Z,5.47
2019-03-21T11:22:56.296Z,5.55
2019-03-21T11:25:24.531Z,5.17
2019-03-21T11:27:52.857Z,7.08
2019-03-21T11:30:24.336Z,4.03
2019-03-21T11:32:52.584Z,6.90
2019-03-21T11:35:20.814Z,6.10
2019-03-21T11:37:49.068Z,9.15
2019-03-21T11:40:17.310Z,5.83
2019-03-21T11:42:45.538Z,5.45
2019-03-21T11:45:15.084Z,5.08
2019-03-21T11:47:43.521Z,4.87
2019-03-21T11:50:11.773Z,5.80
2019-03-21T11:52:41.088Z,6.28
2019-03-21T11:55:09.721Z,6.30
2019-03-21T11:57:37.972Z,4.50
2019-03-21T12:00:11.742Z,6.15
2019-03-21T12:02:39.958Z,5.97
2019-03-21T12:05:08.448Z,5.33
2019-03-21T12:07:36.687Z,3.77
2019-03-21T12:10:10.318Z,5.10
2019-03-21T12:12:38.548Z,3.87
2019-03-21T12:15:10.621Z,8.08
2019-03-21T12:17:38.864Z,4.37
2019-03-21T12:20:32.149Z,5.20
2019-03-21T12:23:00.370Z,5.65
2019-03-21T12:25:28.595Z,4.00
2019-03-21T12:27:56.925Z,4.67
2019-03-21T12:30:33.578Z,7.17
2019-03-21T12:33:01.845Z,3.95
2019-03-21T12:35:30.062Z,7.15
2019-03-21T12:37:58.323Z,4.65
2019-03-21T12:40:26.836Z,5.35
2019-03-21T12:42:55.058Z,6.05
2019-03-21T12:45:23.316Z,6.28
2019-03-21T12:47:51.576Z,10.50
2019-03-21T12:50:19.815Z,4.95
2019-03-21T12:52:48.056Z,5.65
2019-03-21T12:55:16.312Z,5.53
2019-03-21T12:57:44.568Z,4.58
2019-03-21T13:00:14.036Z,4.70
2019-03-21T13:02:43.291Z,7.58
2019-03-21T13:05:29.187Z,7.87
2019-03-21T13:07:57.508Z,5.75
2019-03-21T13:10:25.727Z,6.30
2019-03-21T13:12:53.978Z,8.08
2019-03-21T13:15:29.813Z,9.90
2019-03-21T13:17:52.189Z,12.20
2019-03-21T13:20:20.435Z,5.33
2019-03-21T13:22:52.962Z,5.10
2019-03-21T13:25:18.649Z,10.30
2019-03-21T13:27:47.041Z,8.53
2019-03-21T13:30:15.286Z,6.17
2019-03-21T13:32:43.535Z,10.15
2019-03-21T13:35:11.774Z,5.20
2019-03-21T13:37:40.015Z,13.93
2019-03-21T13:40:08.260Z,8.20
2019-03-21T13:42:36.496Z,6.00
2019-03-21T13:45:07.653Z,6.05
2019-03-21T13:47:35.888Z,4.37
2019-03-21T13:50:06.668Z,6.30
2019-03-21T13:52:34.902Z,6.83
2019-03-21T13:55:04.892Z,7.20
2019-03-21T13:57:33.114Z,8.13
2019-03-21T14:00:01.356Z,5.53
2019-03-21T14:02:29.596Z,6.70
2019-03-21T14:04:57.828Z,6.00
2019-03-21T14:07:26.080Z,5.30
2019-03-21T14:09:54.337Z,5.30
2019-03-21T14:12:22.576Z,5.92
2019-03-21T14:14:50.906Z,5.22
2019-03-21T14:17:22.116Z,6.92
2019-03-21T14:19:49.190Z,4.35
2019-03-21T14:22:17.426Z,3.95
2019-03-21T14:24:45.670Z,5.80
2019-03-21T14:27:15.196Z,4.40
2019-03-21T14:29:43.428Z,6.45
2019-03-21T14:32:11.662Z,5.87
2019-03-21T14:34:39.913Z,4.33
2019-03-21T14:37:08.148Z,4.50
2019-03-21T14:39:36.464Z,5.67
2019-03-21T14:42:04.679Z,8.05
2019-03-21T14:44:32.934Z,5.40
2019-03-21T14:47:01.203Z,4.35
2019-03-21T14:49:29.490Z,9.00
2019-03-21T14:51:57.702Z,5.12
2019-03-21T14:54:25.962Z,5.47
2019-03-21T14:56:54.198Z,8.18
2019-03-21T14:59:22.416Z,8.35
2019-03-21T15:01:50.660Z,5.72
2019-03-21T15:04:18.922Z,8.30
2019-03-21T15:06:47.162Z,9.00
2019-03-21T15:09:15.408Z,4.60
2019-03-21T15:11:43.700Z,4.97
2019-03-21T15:14:11.954Z,5.70
2019-03-21T15:16:40.185Z,5.22
2019-03-21T15:19:08.412Z,8.58
2019-03-21T15:21:36.674Z,4.75
2019-03-21T15:24:04.902Z,7.87
2019-03-21T15:26:33.152Z,5.83
2019-03-21T15:29:01.383Z,6.08
2019-03-21T15:31:29.632Z,8.68
2019-03-21T15:33:57.869Z,4.30
2019-03-21T15:36:26.098Z,4.85
2019-03-21T15:38:54.340Z,7.53
2019-03-21T15:41:22.558Z,6.60
2019-03-21T15:43:50.813Z,11.48
2019-03-21T15:46:19.032Z,9.43
2019-03-21T15:48:47.284Z,6.60
2019-03-21T15:51:15.544Z,4.53
2019-03-21T15:53:53.232Z,5.47
2019-03-21T15:56:13.731Z,4.45
2019-03-21T15:58:41.986Z,10.10
2019-03-21T16:01:10.194Z,9.30
2019-03-21T16:03:38.448Z,8.15
2019-03-21T16:06:06.696Z,4.75
2019-03-21T16:08:34.934Z,3.45
2019-03-21T16:11:03.358Z,5.37
2019-03-21T16:13:31.563Z,6.55
2019-03-21T16:15:59.816Z,6.37
2019-03-21T16:18:28.044Z,9.78
2019-03-21T16:20:56.293Z,5.78
2019-03-21T16:23:24.503Z,5.28
2019-03-21T16:25:52.755Z,8.70
2019-03-21T16:28:20.999Z,5.60
2019-03-21T16:30:49.237Z,5.50
2019-03-21T16:33:17.479Z,5.25
2019-03-21T16:35:45.707Z,4.45
2019-03-21T16:38:13.936Z,5.03
2019-03-21T16:40:42.184Z,3.33
2019-03-21T16:43:10.417Z,3.52
2019-03-21T16:45:38.780Z,5.78
2019-03-21T16:48:09.247Z,5.58
2019-03-21T16:50:36.968Z,4.47
2019-03-21T16:53:05.229Z,6.53
2019-03-21T16:55:33.504Z,5.25
2019-03-21T16:58:01.799Z,4.80
2019-03-21T17:00:30.048Z,4.92
2019-03-21T17:02:58.288Z,4.90
2019-03-21T17:05:26.530Z,4.05
2019-03-21T17:07:54.787Z,6.75
2019-03-21T17:10:23.003Z,7.22
2019-03-21T17:12:51.268Z,5.47
2019-03-21T17:15:19.486Z,8.30
2019-03-21T17:17:47.808Z,8.30
2019-03-21T17:20:16.040Z,5.17
2019-03-21T17:22:44.278Z,5.30
2019-03-21T17:25:12.524Z,6.60
2019-03-21T17:27:40.778Z,4.20
2019-03-21T17:30:13.965Z,8.33
2019-03-21T17:32:42.210Z,4.40
2019-03-21T17:35:10.491Z,4.67
2019-03-21T17:37:38.795Z,7.60
2019-03-21T17:40:08.759Z,3.52
2019-03-21T17:42:36.996Z,3.95
2019-03-21T17:45:16.234Z,6.53
2019-03-21T17:47:44.466Z,6.28
2019-03-21T17:50:14.250Z,16.32
2019-03-21T17:52:42.480Z,13.22
2019-03-21T17:55:10.736Z,12.82
2019-03-21T17:57:38.989Z,12.47
2019-03-21T18:00:10.732Z,12.18
2019-03-21T18:02:38.957Z,10.65
2019-03-21T18:05:07.397Z,9.40
2019-03-21T18:07:55.040Z,13.30
2019-03-21T18:10:33.574Z,19.50
2019-03-21T18:13:02.000Z,15.70
2019-03-21T18:15:30.233Z,17.95
2019-03-21T18:18:01.520Z,11.55
2019-03-21T18:20:29.505Z,11.15
2019-03-21T18:22:57.768Z,7.40
2019-03-21T18:25:26.022Z,8.25
2019-03-21T18:27:54.262Z,7.15
2019-03-21T18:30:23.638Z,11.87
2019-03-21T18:32:51.906Z,10.95
2019-03-21T18:35:20.149Z,7.12
2019-03-21T18:37:48.365Z,7.65
2019-03-21T18:40:16.618Z,10.60
2019-03-21T18:42:44.881Z,9.10
2019-03-21T18:45:13.952Z,6.03
2019-03-21T18:47:42.200Z,4.33
2019-03-21T18:50:12.573Z,4.55
2019-03-21T18:52:40.825Z,5.25
2019-03-21T18:55:09.056Z,6.87
2019-03-21T18:57:37.482Z,4.20
2019-03-21T19:00:11.828Z,6.37
2019-03-21T19:02:40.042Z,14.93
2019-03-21T19:05:08.262Z,16.65
2019-03-21T19:07:36.554Z,14.15
2019-03-21T19:10:07.698Z,15.05
2019-03-21T19:12:35.921Z,19.95
2019-03-21T19:15:06.341Z,19.17
2019-03-21T19:17:34.563Z,13.58
2019-03-21T19:20:02.866Z,10.18
2019-03-21T19:22:31.120Z,6.15
2019-03-21T19:24:59.335Z,8.50
2019-03-21T19:27:27.565Z,8.10
2019-03-21T19:29:55.821Z,8.10
2019-03-21T19:32:24.041Z,7.97
2019-03-21T19:34:52.254Z,7.30
2019-03-21T19:37:20.510Z,6.80
2019-03-21T19:39:48.747Z,6.37
2019-03-21T19:42:16.999Z,3.62
2019-03-21T19:44:45.223Z,7.95
2019-03-21T19:47:23.129Z,6.47
2019-03-21T19:49:43.429Z,9.40
2019-03-21T19:52:11.672Z,11.85
2019-03-21T19:54:39.924Z,7.62
2019-03-21T19:57:08.151Z,6.12
2019-03-21T19:59:36.400Z,9.85
2019-03-21T20:02:04.636Z,8.28
2019-03-21T20:04:32.892Z,6.55
2019-03-21T20:07:01.140Z,8.40
2019-03-21T20:09:29.368Z,7.70
2019-03-21T20:11:57.768Z,9.08
2019-03-21T20:14:25.999Z,10.65
2019-03-21T20:16:54.235Z,5.25
2019-03-21T20:19:22.484Z,10.95
2019-03-21T20:21:50.709Z,6.40
2019-03-21T20:24:18.949Z,7.60
2019-03-21T20:26:47.197Z,8.28
2019-03-21T20:29:15.419Z,9.83
2019-03-21T20:31:43.639Z,8.33
2019-03-21T20:34:13.004Z,8.88
2019-03-21T20:36:41.406Z,6.22
2019-03-21T20:39:09.660Z,9.28
2019-03-21T20:41:37.927Z,11.75
2019-03-21T20:44:14.733Z,5.50
2019-03-21T20:46:36.096Z,6.60
2019-03-21T20:49:04.338Z,9.80
2019-03-21T20:51:32.559Z,8.60
2019-03-21T20:54:00.788Z,10.78
2019-03-21T20:56:29.062Z,8.58
2019-03-21T20:58:57.304Z,9.90
2019-03-21T21:01:25.530Z,8.25
2019-03-21T21:03:53.781Z,9.90
2019-03-21T21:06:22.004Z,9.35
2019-03-21T21:08:50.265Z,11.80
2019-03-21T21:11:18.777Z,13.32
2019-03-21T21:13:47.549Z,13.58
2019-03-21T21:16:16.060Z,8.93
2019-03-21T21:18:44.296Z,9.30
2019-03-21T21:21:12.608Z,11.40
2019-03-21T21:23:40.832Z,8.65
2019-03-21T21:26:09.065Z,10.00
2019-03-21T21:28:37.296Z,9.88
2019-03-21T21:31:05.533Z,11.25
2019-03-21T21:33:33.805Z,15.10
2019-03-21T21:36:02.032Z,9.90
2019-03-21T21:38:30.256Z,13.65
2019-03-21T21:40:58.500Z,10.03
2019-03-21T21:43:26.757Z,11.68
2019-03-21T21:45:54.982Z,9.20
2019-03-21T21:48:23.202Z,10.28
2019-03-21T21:50:51.455Z,9.70
2019-03-21T21:53:19.685Z,12.88
2019-03-21T21:55:47.903Z,9.75
2019-03-21T21:58:16.156Z,8.83
2019-03-21T22:00:44.367Z,8.70
2019-03-21T22:03:12.595Z,7.05
2019-03-21T22:05:40.836Z,14.38
2019-03-21T22:08:09.069Z,8.23
2019-03-21T22:10:37.318Z,11.97
2019-03-21T22:13:05.539Z,9.28
2019-03-21T22:15:33.756Z,13.25
2019-03-21T22:18:01.998Z,9.70
2019-03-21T22:20:30.225Z,11.95
2019-03-21T22:22:58.478Z,8.70
2019-03-21T22:25:26.710Z,10.68
2019-03-21T22:27:54.988Z,7.03
2019-03-21T22:30:23.235Z,10.95
2019-03-21T22:32:51.484Z,12.03
2019-03-21T22:35:19.707Z,8.05
2019-03-21T22:37:47.934Z,12.13
2019-03-21T22:40:18.378Z,16.25
2019-03-21T22:42:46.611Z,9.63
2019-03-21T22:45:16.082Z,8.50
2019-03-21T22:47:44.334Z,13.98
2019-03-21T22:50:17.023Z,14.47
2019-03-21T22:52:45.618Z,11.63
2019-03-21T22:55:14.105Z,8.48
2019-03-21T22:57:42.336Z,11.60
2019-03-21T23:00:20.286Z,11.90
2019-03-21T23:02:48.505Z,10.45
2019-03-21T23:05:16.763Z,8.55
2019-03-21T23:07:44.993Z,12.70
2019-03-21T23:10:13.231Z,9.33
2019-03-21T23:12:42.104Z,9.70
2019-03-21T23:15:13.922Z,10.43
2019-03-21T23:17:42.169Z,11.73
2019-03-21T23:20:12.638Z,11.03
2019-03-21T23:22:40.872Z,15.55
2019-03-21T23:25:09.557Z,9.65
2019-03-21T23:27:37.791Z,14.80
2019-03-21T23:30:11.978Z,11.95
2019-03-21T23:32:40.241Z,12.98
2019-03-21T23:35:08.493Z,10.68
2019-03-21T23:37:37.266Z,12.13
2019-03-21T23:40:07.256Z,10.25
2019-03-21T23:42:35.482Z,11.68
2019-03-21T23:45:05.748Z,14.00
2019-03-21T23:47:34.076Z,9.78
2019-03-21T23:50:02.295Z,11.03
2019-03-21T23:52:30.523Z,8.73
2019-03-21T23:54:58.801Z,9.03
2019-03-21T23:57:27.016Z,8.73
2019-03-21T23:59:58.492Z,11.57
